Time;durP1;ratioP1;P1;durP2;ratioP2;P2;SDS_P1;SDS_P2;PMS_P1;PMS_P2;Temp;Humidity;BMP_temperature;BMP_pressure;BME280_temperature;BME280_humidity;BME280_pressure;Samples;Min_cycle;Max_cycle;Signal;HPM_P1;HPM_P2
2023/08/21 06:13:57;;;;;;;;;3.00;2.00;;;;;27.58;46.12;101966.53;5111133;27;45502;-62
2023/08/21 06:16:23;;;;;;;;;2.50;2.50;;;;;27.97;44.52;101950.72;5096242;27;45395;-62
2023/08/21 06:18:48;;;;;;;;;2.25;2.25;;;;;28.26;44.00;101967.06;5095769;27;45310;-62
2023/08/21 06:21:13;;;;;;;;;5.00;2.00;;;;;28.46;43.29;101965.91;5095558;27;54544;-60
2023/08/21 06:23:38;;;;;;;;;2.75;2.75;;;;;28.72;43.46;101968.75;5095855;27;46061;-62
2023/08/21 06:26:04;;;;;;;;;2.00;2.00;;;;;28.88;42.90;101966.16;5096234;27;45251;-62
2023/08/21 06:28:30;;;;;;;;;4.00;3.00;;;;;28.98;41.89;101977.13;5096192;27;45341;-63
2023/08/21 06:30:57;;;;;;;;;2.00;2.00;;;;;29.11;41.95;101972.03;5096141;27;45418;-62
2023/08/21 06:33:23;;;;;;;;;3.75;3.75;;;;;29.18;41.74;101967.59;5095989;27;46325;-62
2023/08/21 06:35:48;;;;;;;;;2.50;2.50;;;;;29.35;41.50;101979.63;5095773;27;45384;-62
2023/08/21 06:38:13;;;;;;;;;3.75;2.50;;;;;29.30;41.25;101962.69;5095296;27;50503;-62
2023/08/21 06:40:39;;;;;;;;;3.75;3.75;;;;;29.31;40.98;101961.66;5095369;27;58301;-62
2023/08/21 06:43:05;;;;;;;;;3.25;3.25;;;;;29.39;40.82;101960.88;5095562;27;46229;-62
2023/08/21 06:45:32;;;;;;;;;3.75;2.50;;;;;29.45;41.35;101962.97;5095726;27;45357;-62
2023/08/21 06:47:57;;;;;;;;;1.75;1.75;;;;;29.64;40.21;101977.41;5095828;27;45407;-62
2023/08/21 06:50:23;;;;;;;;;2.00;2.00;;;;;29.69;39.59;101979.69;5095296;27;45695;-61
2023/08/21 06:52:48;;;;;;;;;3.50;1.50;;;;;29.83;39.98;101987.38;5095333;27;46255;-62
2023/08/21 06:55:14;;;;;;;;;2.75;2.75;;;;;29.99;39.62;101976.41;5095324;27;49106;-63
2023/08/21 06:57:39;;;;;;;;;1.50;1.50;;;;;30.16;39.61;101982.00;5095495;27;45243;-62
2023/08/21 07:00:06;;;;;;;;;5.00;3.00;;;;;30.29;38.29;101977.69;5095298;27;45535;-62
2023/08/21 07:02:31;;;;;;;;;1.25;1.25;;;;;30.48;38.70;101973.75;5094817;27;46408;-62
2023/08/21 07:04:56;;;;;;;;;1.50;0.50;;;;;30.54;37.82;101975.03;5094808;27;45515;-62
2023/08/21 07:07:22;;;;;;;;;2.00;2.00;;;;;30.76;37.53;101975.22;5092893;27;45346;-59
2023/08/21 07:09:47;;;;;;;;;2.25;2.25;;;;;30.94;36.87;101971.41;5085732;27;45312;-61
2023/08/21 07:12:12;;;;;;;;;2.00;2.00;;;;;30.93;37.30;101984.41;5084288;27;45926;-62
2023/08/21 07:14:38;;;;;;;;;2.25;2.25;;;;;31.09;36.36;101973.34;5080922;27;45355;-61
2023/08/21 07:17:05;;;;;;;;;1.00;1.00;;;;;31.10;36.26;101976.97;5081131;28;49784;-61
2023/08/21 07:19:30;;;;;;;;;3.00;1.75;;;;;31.19;35.99;101973.16;5078609;27;45528;-61
2023/08/21 07:21:56;;;;;;;;;1.50;1.50;;;;;31.33;36.00;101975.19;5080757;27;47035;-61
2023/08/21 07:24:21;;;;;;;;;0.75;0.75;;;;;31.29;36.09;101976.59;5081066;27;49947;-61
2023/08/21 07:26:46;;;;;;;;;2.25;2.25;;;;;31.35;36.21;101984.22;5081225;28;45844;-61
2023/08/21 07:29:11;;;;;;;;;3.50;1.00;;;;;31.47;35.91;101984.72;5081094;27;45454;-62
2023/08/21 07:31:37;;;;;;;;;0.75;0.75;;;;;31.58;35.32;101993.50;5081269;27;45485;-61
2023/08/21 07:34:02;;;;;;;;;0.75;0.75;;;;;31.70;35.60;101993.16;5081284;27;45351;-61
2023/08/21 07:36:27;;;;;;;;;0.75;0.75;;;;;31.75;34.98;101986.03;5081531;27;45413;-61
2023/08/21 07:38:53;;;;;;;;;2.50;2.50;;;;;31.80;35.01;101989.16;5069439;27;45389;-61
2023/08/21 07:41:18;;;;;;;;;1.75;1.75;;;;;31.93;34.73;101994.97;5080985;27;47741;-61
2023/08/21 07:43:44;;;;;;;;;1.75;0.50;;;;;31.82;33.74;101978.72;5080851;27;45358;-62
2023/08/21 07:46:15;;;;;;;;;0.50;0.50;;;;;31.93;33.88;101988.56;5081295;27;45319;-61
2023/08/21 07:48:41;;;;;;;;;2.75;0.75;;;;;31.99;33.27;101993.38;5080163;27;45687;-61
2023/08/21 07:51:06;;;;;;;;;4.50;2.75;;;;;32.09;33.23;101982.94;5080747;27;46015;-59
2023/08/21 07:53:31;;;;;;;;;0.50;0.50;;;;;32.17;33.05;101995.94;5080692;27;45363;-61
2023/08/21 07:55:58;;;;;;;;;0.00;0.00;;;;;32.20;32.68;101995.59;5080924;27;45313;-60
2023/08/21 07:58:23;;;;;;;;;0.25;0.25;;;;;32.14;32.90;101988.81;5080731;27;45315;-61
2023/08/21 08:00:49;;;;;;;;;0.00;0.00;;;;;32.24;32.70;101983.91;5080524;27;52406;-61
2023/08/21 08:03:14;;;;;;;;;0.00;0.00;;;;;32.11;31.87;101975.31;5080759;27;45259;-62
2023/08/21 08:05:41;;;;;;;;;0.00;0.00;;;;;32.24;32.86;101980.31;5080819;27;45341;-61
2023/08/21 08:08:07;;;;;;;;;0.25;0.25;;;;;32.19;32.03;101986.38;5081278;27;45383;-61
2023/08/21 08:10:32;;;;;;;;;2.00;0.75;;;;;32.22;32.63;101993.50;5080385;27;45279;-61
2023/08/21 08:12:57;;;;;;;;;2.00;0.50;;;;;32.29;32.55;101994.50;5080224;27;45337;-60
2023/08/21 08:15:23;;;;;;;;;2.00;0.75;;;;;32.30;32.76;101986.00;5080170;27;45336;-60
2023/08/21 08:17:53;;;;;;;;;0.50;0.50;;;;;32.39;32.67;101985.94;5073108;28;55358;-61
2023/08/21 08:20:18;;;;;;;;;0.50;0.50;;;;;32.45;32.63;101996.31;5078821;27;45605;-61
2023/08/21 08:22:44;;;;;;;;;1.75;1.00;;;;;32.40;32.02;101991.31;5080277;27;45312;-62
2023/08/21 08:25:10;;;;;;;;;1.50;0.75;;;;;32.37;31.73;101991.66;5096201;27;45531;-62
2023/08/21 08:27:35;;;;;;;;;0.00;0.00;;;;;32.43;32.43;101992.84;5080303;27;45353;-62
2023/08/21 08:30:01;;;;;;;;;2.00;0.00;;;;;32.49;32.06;101986.56;5066368;27;47467;-60
2023/08/21 08:32:26;;;;;;;;;0.50;0.50;;;;;32.54;31.82;101984.09;5080192;27;45318;-61
2023/08/21 08:34:52;;;;;;;;;0.75;0.75;;;;;32.45;31.88;101997.16;5075294;27;45280;-61
2023/08/21 08:37:18;;;;;;;;;0.75;0.75;;;;;32.44;31.12;101994.56;5070762;28;45174;-62
2023/08/21 08:39:43;;;;;;;;;3.00;0.25;;;;;32.43;31.69;101993.69;5080056;28;46611;-60
2023/08/21 08:42:10;;;;;;;;;1.00;1.00;;;;;32.60;32.37;101991.69;5079971;27;45265;-61
2023/08/21 08:44:36;;;;;;;;;1.00;1.00;;;;;32.61;32.17;101988.72;5080152;27;45339;-61
2023/08/21 08:47:03;;;;;;;;;1.00;1.00;;;;;32.64;32.03;101985.59;5079682;27;45438;-61
2023/08/21 08:49:30;;;;;;;;;1.00;0.50;;;;;32.68;31.95;101988.84;5078767;27;46663;-61
2023/08/21 08:51:56;;;;;;;;;2.00;0.25;;;;;32.67;32.08;101974.09;5079772;28;45156;-60
2023/08/21 08:54:22;;;;;;;;;2.75;0.75;;;;;32.68;32.43;101975.81;5080156;27;45314;-61
2023/08/21 08:56:48;;;;;;;;;0.50;0.50;;;;;32.67;31.77;101973.22;5079858;27;45409;-59
2023/08/21 08:59:14;;;;;;;;;1.75;0.75;;;;;32.72;31.84;101972.72;5079549;27;46071;-60
2023/08/21 09:01:41;;;;;;;;;1.25;1.00;;;;;32.79;32.07;101980.13;5079983;27;45344;-60
2023/08/21 09:04:06;;;;;;;;;1.75;0.00;;;;;32.77;31.38;101985.00;5079589;27;45444;-61
2023/08/21 09:06:32;;;;;;;;;0.00;0.00;;;;;32.80;31.52;101983.75;5079514;27;45595;-61
2023/08/21 09:08:57;;;;;;;;;1.75;0.75;;;;;32.73;31.03;101980.00;5068645;27;46230;-60
2023/08/21 09:11:24;;;;;;;;;0.75;0.75;;;;;32.77;31.26;101975.78;5079382;27;45318;-61
2023/08/21 09:13:53;;;;;;;;;1.50;0.75;;;;;32.82;31.35;101978.91;5078687;27;45330;-60
2023/08/21 09:16:19;;;;;;;;;0.00;0.00;;;;;32.84;31.47;101960.97;5079715;27;45417;-61
2023/08/21 09:18:54;;;;;;;;;0.25;0.00;;;;;32.91;31.43;101967.53;5079068;27;46104;-61
2023/08/21 09:21:21;;;;;;;;;0.75;0.75;;;;;32.91;31.92;101969.44;5079142;27;45492;-61
2023/08/21 09:23:48;;;;;;;;;1.50;1.00;;;;;32.93;31.99;101968.19;5079446;27;45349;-62
2023/08/21 09:26:21;;;;;;;;;2.00;1.00;;;;;33.05;32.22;101969.47;5077931;27;46784;-61
2023/08/21 09:28:51;;;;;;;;;0.75;0.75;;;;;33.17;31.87;101967.13;5069062;27;46333;-61
2023/08/21 09:31:22;;;;;;;;;1.00;1.00;;;;;33.09;32.09;101978.31;5079135;27;45316;-61
2023/08/21 09:33:56;;;;;;;;;0.75;0.75;;;;;33.15;32.23;101969.22;5078968;27;45475;-62
2023/08/21 09:36:22;;;;;;;;;1.00;1.00;;;;;33.18;31.64;101963.25;5078760;27;45337;-61
2023/08/21 09:38:48;;;;;;;;;0.75;0.25;;;;;33.23;31.63;101954.41;5078961;27;46385;-62
2023/08/21 09:41:13;;;;;;;;;0.75;0.75;;;;;33.22;32.06;101961.88;5079188;27;45362;-61
2023/08/21 09:43:45;;;;;;;;;1.00;1.00;;;;;33.27;31.97;101959.38;5079333;27;45413;-60
2023/08/21 09:46:16;;;;;;;;;1.50;0.25;;;;;33.26;31.68;101954.88;5094930;27;46172;-61
2023/08/21 09:48:43;;;;;;;;;1.00;1.00;;;;;33.32;31.43;101961.59;5078346;27;45421;-61
2023/08/21 09:51:08;;;;;;;;;0.75;0.75;;;;;33.21;32.01;101962.91;5078517;27;45353;-61
2023/08/21 09:53:34;;;;;;;;;1.00;1.00;;;;;33.14;32.18;101950.81;5078734;27;45263;-60
2023/08/21 09:56:03;;;;;;;;;2.00;2.00;;;;;33.31;32.01;101959.88;5078957;27;45508;-61
2023/08/21 09:58:28;;;;;;;;;1.25;1.25;;;;;33.27;32.19;101952.94;5079756;27;45449;-60
2023/08/21 10:00:57;;;;;;;;;1.75;1.75;;;;;33.19;32.23;101942.75;5078691;27;45370;-61
2023/08/21 10:03:23;;;;;;;;;2.50;1.00;;;;;33.24;32.48;101942.22;5078558;27;45335;-61
2023/08/21 10:05:49;;;;;;;;;2.50;1.00;;;;;33.34;32.28;101951.16;5078568;28;45318;-62
2023/08/21 10:08:18;;;;;;;;;2.50;1.00;;;;;33.36;32.73;101951.81;5068993;27;46118;-62
2023/08/21 10:10:43;;;;;;;;;1.50;1.00;;;;;33.21;32.28;101940.69;5069518;27;45552;-60
2023/08/21 10:13:09;;;;;;;;;1.00;1.00;;;;;33.32;32.17;101959.69;5077625;27;45390;-61
2023/08/21 10:15:37;;;;;;;;;3.00;2.25;;;;;33.41;32.70;101949.34;5078510;27;45495;-61
2023/08/21 10:18:24;;;;;;;;;1.00;1.00;;;;;33.46;32.13;101949.63;5078327;28;45311;-61
2023/08/21 10:20:51;;;;;;;;;5.00;2.00;;;;;33.43;31.99;101941.69;5078776;28;45440;-63
2023/08/21 10:23:30;;;;;;;;;2.00;2.00;;;;;33.46;32.36;101932.06;5078622;27;45509;-62
2023/08/21 10:26:00;;;;;;;;;2.75;1.00;;;;;33.59;32.27;101938.69;5078454;28;45286;-61
2023/08/21 10:28:51;;;;;;;;;2.00;2.00;;;;;33.52;31.79;101926.59;5078541;28;46754;-62
2023/08/21 10:31:28;;;;;;;;;2.00;2.00;;;;;33.65;31.92;101937.94;5078522;27;45356;-62
2023/08/21 10:33:54;;;;;;;;;1.00;1.00;;;;;33.61;31.95;101924.56;5078394;28;45319;-62
2023/08/21 10:36:44;;;;;;;;;1.75;1.75;;;;;33.66;31.72;101927.66;5078367;27;46007;-62
2023/08/21 10:39:17;;;;;;;;;1.50;1.50;;;;;33.76;31.40;101929.13;5078589;27;46216;-61
2023/08/21 10:42:15;;;;;;;;;1.00;1.00;;;;;33.83;31.08;101923.66;5078329;28;45478;-61
2023/08/21 10:44:45;;;;;;;;;0.75;0.75;;;;;33.87;30.61;101927.75;5075658;28;45353;-62
2023/08/21 10:47:17;;;;;;;;;1.00;1.00;;;;;33.83;31.39;101922.78;5078305;27;46034;-61
2023/08/21 10:49:44;;;;;;;;;2.00;1.75;;;;;33.84;30.75;101902.25;5080632;28;46274;-61
2023/08/21 10:52:09;;;;;;;;;1.75;1.75;;;;;33.85;30.73;101910.41;5081722;27;45386;-60
2023/08/21 10:54:49;;;;;;;;;2.00;2.00;;;;;33.83;30.97;101918.09;5081923;27;45331;-60
2023/08/21 10:57:15;;;;;;;;;2.25;2.25;;;;;33.98;30.66;101906.91;5081753;27;45418;-62
2023/08/21 11:00:11;;;;;;;;;1.25;1.00;;;;;34.02;29.94;101909.13;5081635;27;46268;-61
2023/08/21 11:02:43;;;;;;;;;3.00;2.00;;;;;34.09;29.75;101907.28;5081217;27;45378;-61
2023/08/21 11:05:10;;;;;;;;;1.00;1.00;;;;;34.12;29.43;101908.78;5081873;27;45334;-61
2023/08/21 11:07:46;;;;;;;;;1.50;1.50;;;;;34.28;29.41;101904.94;5081583;27;45418;-61
2023/08/21 11:10:17;;;;;;;;;1.00;1.00;;;;;34.25;29.21;101908.13;5081163;27;46183;-62
2023/08/21 11:12:53;;;;;;;;;1.00;1.00;;;;;34.31;29.55;101893.38;5081212;27;45477;-61
2023/08/21 11:15:19;;;;;;;;;1.00;1.00;;;;;34.36;29.32;101902.03;5081220;27;45354;-61
2023/08/21 11:17:56;;;;;;;;;1.00;1.00;;;;;34.42;28.87;101896.53;5079995;28;45776;-61
2023/08/21 11:20:22;;;;;;;;;2.00;2.00;;;;;34.48;29.60;101894.84;5081491;27;46223;-62
2023/08/21 11:22:47;;;;;;;;;1.00;1.00;;;;;34.60;29.71;101896.06;5081372;27;45320;-61
2023/08/21 11:25:14;;;;;;;;;1.50;1.50;;;;;34.67;29.69;101894.19;5081277;27;45516;-61
2023/08/21 11:27:40;;;;;;;;;3.00;1.75;;;;;34.92;29.23;101903.84;5081381;27;45476;-61
2023/08/21 11:30:06;;;;;;;;;1.00;1.00;;;;;35.00;28.78;101890.84;5080987;27;46306;-62
2023/08/21 11:32:31;;;;;;;;;1.00;1.00;;;;;35.04;28.14;101903.31;5081033;27;45850;-62
2023/08/21 11:34:57;;;;;;;;;1.25;1.25;;;;;35.16;28.12;101894.16;5080593;27;45490;-62
2023/08/21 11:37:24;;;;;;;;;0.75;0.75;;;;;35.36;28.27;101899.91;5081033;27;45544;-61
2023/08/21 11:39:52;;;;;;;;;1.25;1.25;;;;;35.49;28.27;101899.09;5080818;27;46363;-61
2023/08/21 11:42:19;;;;;;;;;3.00;2.00;;;;;35.53;28.50;101881.78;5080985;28;45268;-63
2023/08/21 11:44:49;;;;;;;;;2.75;1.00;;;;;35.64;27.98;101895.09;5081114;27;45454;-61
2023/08/21 11:47:17;;;;;;;;;1.25;1.25;;;;;35.57;28.31;101879.41;5080790;27;45508;-60
2023/08/21 11:49:44;;;;;;;;;1.75;1.75;;;;;35.51;28.23;101878.31;5080705;28;45321;-59
2023/08/21 11:52:11;;;;;;;;;0.75;0.75;;;;;35.62;28.60;101888.91;5079693;28;45506;-58
2023/08/21 11:54:38;;;;;;;;;1.50;1.50;;;;;35.62;28.12;101874.09;5080266;27;45331;-59
2023/08/21 11:57:09;;;;;;;;;1.25;1.00;;;;;35.55;28.36;101887.16;5079761;27;45351;-60
2023/08/21 11:59:34;;;;;;;;;2.50;2.00;;;;;35.56;28.52;101884.13;5080349;27;45990;-59
2023/08/21 12:02:00;;;;;;;;;3.50;3.50;;;;;35.67;28.46;101885.47;5080639;27;45455;-60
2023/08/21 12:04:27;;;;;;;;;1.00;1.00;;;;;35.68;28.48;101881.63;5080598;27;45334;-60
2023/08/21 12:06:52;;;;;;;;;2.00;2.00;;;;;35.77;28.78;101880.41;5079222;27;45429;-58
2023/08/21 12:09:19;;;;;;;;;3.00;1.25;;;;;35.81;28.15;101870.56;5079825;27;45345;-59
2023/08/21 12:11:44;;;;;;;;;1.75;1.75;;;;;35.86;28.13;101869.91;5078441;28;45414;-60
2023/08/21 12:14:09;;;;;;;;;1.00;1.00;;;;;35.80;27.99;101856.81;5096413;27;45729;-59
2023/08/21 12:16:35;;;;;;;;;1.25;1.00;;;;;35.91;27.87;101870.13;5080519;27;45330;-59
2023/08/21 12:19:00;;;;;;;;;1.00;1.00;;;;;35.91;27.69;101868.19;5080170;27;45341;-60
2023/08/21 12:21:26;;;;;;;;;1.75;1.75;;;;;35.95;27.76;101863.94;5080466;27;45232;-60
2023/08/21 12:23:51;;;;;;;;;1.00;1.00;;;;;36.05;27.36;101868.25;5096323;27;45386;-59
2023/08/21 12:26:20;;;;;;;;;0.75;0.75;;;;;36.03;27.84;101863.75;5080296;27;45169;-59
2023/08/21 12:28:47;;;;;;;;;1.00;1.00;;;;;36.14;27.94;101864.19;5080306;27;45336;-59
2023/08/21 12:31:12;;;;;;;;;1.00;1.00;;;;;36.32;27.60;101862.56;5080118;27;45509;-58
2023/08/21 12:33:38;;;;;;;;;1.25;1.25;;;;;36.42;27.21;101856.53;5078833;28;45414;-59
2023/08/21 12:36:03;;;;;;;;;1.00;1.00;;;;;36.47;27.02;101853.97;5078671;28;45884;-61
2023/08/21 12:38:29;;;;;;;;;2.75;0.75;;;;;36.61;26.92;101852.88;5080017;28;45397;-60
2023/08/21 12:40:54;;;;;;;;;1.00;1.00;;;;;36.76;26.88;101856.34;5079873;27;45401;-60
2023/08/21 12:43:20;;;;;;;;;0.00;0.00;;;;;36.79;26.81;101857.84;5080239;28;45362;-60
2023/08/21 12:45:45;;;;;;;;;0.50;0.50;;;;;36.87;26.34;101845.59;5080576;27;45754;-59
2023/08/21 12:48:11;;;;;;;;;0.75;0.75;;;;;36.93;25.74;101850.31;5079698;27;46441;-59
2023/08/21 12:50:36;;;;;;;;;1.00;1.00;;;;;37.03;26.13;101843.19;5080007;27;45202;-59
2023/08/21 12:53:01;;;;;;;;;0.25;0.25;;;;;37.10;25.71;101843.16;5079814;27;45528;-60
2023/08/21 12:55:28;;;;;;;;;1.00;1.00;;;;;37.21;25.58;101845.34;5078977;27;45531;-61
2023/08/21 12:57:55;;;;;;;;;0.00;0.00;;;;;37.28;25.06;101840.56;5080068;27;45323;-60
2023/08/21 13:00:21;;;;;;;;;0.75;0.75;;;;;37.40;25.31;101835.16;5079587;28;45463;-60
2023/08/21 13:02:46;;;;;;;;;0.00;0.00;;;;;37.55;25.72;101829.28;5079654;27;45339;-60
2023/08/21 13:05:11;;;;;;;;;0.00;0.00;;;;;37.65;25.41;101824.97;5079451;27;45398;-58
2023/08/21 13:07:37;;;;;;;;;1.00;1.00;;;;;37.78;24.99;101830.50;5095327;27;46294;-60
2023/08/21 13:10:02;;;;;;;;;1.00;1.00;;;;;37.96;24.53;101831.69;5079171;27;45338;-61
2023/08/21 13:12:28;;;;;;;;;1.00;1.00;;;;;38.03;24.74;101838.09;5078973;27;45295;-60
2023/08/21 13:14:54;;;;;;;;;2.00;2.00;;;;;38.22;24.70;101825.94;5079654;27;45380;-61
2023/08/21 13:17:19;;;;;;;;;1.75;0.50;;;;;38.31;24.16;101830.19;5079350;27;45675;-60
2023/08/21 13:19:45;;;;;;;;;1.00;1.00;;;;;38.34;24.41;101826.94;5079282;27;45437;-61
2023/08/21 13:22:11;;;;;;;;;1.50;0.50;;;;;38.52;25.14;101828.97;5079726;27;45357;-60
2023/08/21 13:24:36;;;;;;;;;0.75;0.00;;;;;38.64;24.60;101815.91;5079293;27;56916;-60
2023/08/21 13:27:02;;;;;;;;;0.75;0.50;;;;;38.75;23.60;101820.78;5078026;27;56205;-60
2023/08/21 13:29:27;;;;;;;;;0.25;0.25;;;;;38.76;23.34;101810.44;5079519;27;45294;-60
2023/08/21 13:31:55;;;;;;;;;0.75;0.75;;;;;38.76;23.54;101810.44;5079164;28;53662;-60
2023/08/21 13:34:21;;;;;;;;;1.00;0.00;;;;;38.77;23.44;101804.59;5094799;27;46560;-61
2023/08/21 13:36:46;;;;;;;;;1.00;1.00;;;;;38.87;23.48;101810.53;5074686;27;45255;-60
2023/08/21 13:39:15;;;;;;;;;1.00;1.00;;;;;38.92;23.25;101798.59;5079231;28;45825;-60
2023/08/21 13:41:40;;;;;;;;;1.00;1.00;;;;;39.04;23.69;101799.59;5079653;27;45322;-59
2023/08/21 13:44:05;;;;;;;;;1.25;1.25;;;;;39.02;23.18;101798.97;5079067;27;45309;-59
2023/08/21 13:46:33;;;;;;;;;1.25;1.00;;;;;39.04;23.26;101779.09;5079361;27;46102;-60
2023/08/21 13:48:58;;;;;;;;;1.75;1.00;;;;;39.12;23.97;101793.69;5077596;28;45405;-60
2023/08/21 13:51:23;;;;;;;;;0.25;0.25;;;;;39.19;23.58;101793.59;5095228;27;45342;-61
2023/08/21 13:53:49;;;;;;;;;0.00;0.00;;;;;39.33;23.44;101783.91;5077896;28;46102;-60
2023/08/21 13:56:14;;;;;;;;;1.00;1.00;;;;;39.52;24.24;101781.97;5075616;28;47037;-61
2023/08/21 13:58:39;;;;;;;;;1.00;1.00;;;;;39.72;23.37;101785.38;5079268;27;45234;-60
2023/08/21 14:01:06;;;;;;;;;1.00;1.00;;;;;39.86;23.06;101772.00;5079167;28;47175;-59
2023/08/21 14:03:31;;;;;;;;;1.25;1.00;;;;;39.86;22.69;101764.44;5078566;28;45388;-59
2023/08/21 14:05:57;;;;;;;;;2.25;0.25;;;;;39.94;23.13;101766.91;5074231;27;45431;-59
2023/08/21 14:08:22;;;;;;;;;1.00;1.00;;;;;40.01;23.50;101775.22;5071778;28;45346;-59
2023/08/21 14:10:47;;;;;;;;;2.00;1.00;;;;;40.05;22.49;101768.03;5060414;27;45358;-60
2023/08/21 14:13:13;;;;;;;;;1.00;1.00;;;;;40.19;22.15;101765.84;5077392;27;45565;-60
2023/08/21 14:15:38;;;;;;;;;1.00;1.00;;;;;40.23;22.19;101767.09;5075787;27;46069;-59
2023/08/21 14:18:04;;;;;;;;;2.50;1.50;;;;;40.28;22.78;101759.66;5077783;28;55408;-60
2023/08/21 14:20:30;;;;;;;;;2.00;0.25;;;;;40.39;22.12;101761.66;5065465;27;45413;-60
2023/08/21 14:22:55;;;;;;;;;1.00;1.00;;;;;40.54;21.96;101754.69;5074422;27;45489;-60
2023/08/21 14:25:20;;;;;;;;;0.25;0.25;;;;;40.73;22.00;101751.53;5081808;27;50687;-58
2023/08/21 14:27:47;;;;;;;;;1.75;1.25;;;;;40.97;21.68;101745.88;5073871;28;52585;-60
2023/08/21 14:30:14;;;;;;;;;1.00;1.00;;;;;41.17;22.09;101749.16;5080423;28;45465;-60
2023/08/21 14:32:39;;;;;;;;;2.50;1.00;;;;;41.36;21.89;101738.56;5081938;27;45494;-60
2023/08/21 14:35:07;;;;;;;;;0.25;0.25;;;;;41.31;21.55;101732.84;5081752;27;45239;-59
2023/08/21 14:37:33;;;;;;;;;1.75;1.75;;;;;41.31;21.36;101733.69;5082226;27;45359;-60
2023/08/21 14:39:58;;;;;;;;;1.25;1.25;;;;;41.35;21.37;101728.41;5082192;27;45383;-61
2023/08/21 14:42:24;;;;;;;;;0.25;0.25;;;;;41.52;20.84;101732.16;5081979;27;51159;-60
2023/08/21 14:44:49;;;;;;;;;2.25;1.00;;;;;41.56;20.87;101727.75;5078834;27;45432;-60
2023/08/21 14:47:14;;;;;;;;;0.25;0.25;;;;;41.59;20.43;101732.03;5081593;27;45429;-62
2023/08/21 14:49:40;;;;;;;;;0.25;0.25;;;;;41.71;20.95;101732.78;5081089;27;49409;-59
2023/08/21 14:52:06;;;;;;;;;1.00;1.00;;;;;41.87;21.18;101721.56;5080654;28;46970;-59
2023/08/21 14:54:34;;;;;;;;;1.50;1.50;;;;;41.96;21.15;101716.38;5080320;28;45410;-59
2023/08/21 14:57:00;;;;;;;;;1.00;1.00;;;;;42.01;20.68;101721.28;5081407;27;45319;-59
2023/08/21 14:59:25;;;;;;;;;1.00;1.00;;;;;41.99;20.02;101717.84;5081100;28;50817;-59
2023/08/21 15:01:51;;;;;;;;;0.00;0.00;;;;;42.11;20.77;101707.34;5078153;27;45651;-59
2023/08/21 15:04:16;;;;;;;;;1.00;1.00;;;;;42.07;19.96;101707.00;5081270;27;45389;-59
2023/08/21 15:06:41;;;;;;;;;1.75;1.75;;;;;42.03;20.53;101704.94;5081887;28;45312;-59
2023/08/21 15:09:08;;;;;;;;;1.50;1.50;;;;;41.89;20.51;101701.59;5080281;28;45353;-60
2023/08/21 15:11:34;;;;;;;;;0.33;0.33;;;;;41.88;20.88;101700.72;5081192;27;45774;-60
2023/08/21 15:14:02;;;;;;;;;1.00;1.00;;;;;41.97;20.67;101692.75;5081643;27;46420;-59
2023/08/21 15:16:27;;;;;;;;;0.25;0.25;;;;;42.11;20.23;101688.44;5074229;28;45614;-59
2023/08/21 15:18:52;;;;;;;;;1.00;1.00;;;;;42.08;20.59;101689.00;5080891;27;45408;-59
2023/08/21 15:21:19;;;;;;;;;0.50;0.50;;;;;42.19;21.15;101692.84;5081490;27;45592;-60
2023/08/21 15:23:44;;;;;;;;;2.25;1.00;;;;;42.20;20.76;101686.91;5080754;27;45432;-60
2023/08/21 15:26:10;;;;;;;;;1.25;0.50;;;;;42.28;20.46;101677.19;5080134;28;45173;-60
2023/08/21 15:28:35;;;;;;;;;0.50;0.50;;;;;42.24;20.04;101671.22;5081204;27;45601;-59
2023/08/21 15:31:00;;;;;;;;;0.50;0.50;;;;;42.25;20.01;101681.38;5081407;27;45534;-60
2023/08/21 15:33:26;;;;;;;;;1.00;1.00;;;;;42.35;20.38;101679.84;5080608;27;46942;-61
2023/08/21 15:35:52;;;;;;;;;2.00;1.00;;;;;42.43;20.24;101673.78;5079550;28;45236;-61
2023/08/21 15:38:17;;;;;;;;;1.25;1.00;;;;;42.56;20.66;101670.56;5081327;28;45421;-61
2023/08/21 15:40:43;;;;;;;;;1.25;1.00;;;;;42.61;20.55;101671.50;5080633;28;51762;-59
2023/08/21 15:43:08;;;;;;;;;3.25;1.75;;;;;42.75;20.04;101674.81;5080937;27;46117;-59
2023/08/21 15:45:33;;;;;;;;;0.25;0.25;;;;;42.79;19.36;101673.16;5080960;27;45363;-58
2023/08/21 15:47:59;;;;;;;;;1.00;1.00;;;;;42.83;19.84;101674.38;5080909;28;45303;-59
2023/08/21 15:50:24;;;;;;;;;1.25;1.25;;;;;43.00;19.50;101668.66;5081186;27;45331;-58
2023/08/21 15:52:50;;;;;;;;;2.00;1.00;;;;;43.07;19.01;101665.63;5080894;27;45374;-59
2023/08/21 15:55:16;;;;;;;;;1.25;1.25;;;;;43.07;19.72;101662.78;5080876;27;45439;-58
2023/08/21 15:57:41;;;;;;;;;0.50;0.50;;;;;43.00;18.57;101658.22;5081138;27;45413;-59
2023/08/21 16:00:08;;;;;;;;;1.00;1.00;;;;;43.09;19.60;101657.75;5080783;27;45345;-58
2023/08/21 16:02:33;;;;;;;;;1.00;1.00;;;;;43.12;19.71;101646.78;5080435;28;45291;-59
2023/08/21 16:04:59;;;;;;;;;2.50;1.75;;;;;43.18;19.95;101656.19;5080621;27;45236;-59
2023/08/21 16:07:24;;;;;;;;;0.25;0.25;;;;;43.21;19.51;101636.78;5080713;27;45339;-58
2023/08/21 16:09:49;;;;;;;;;1.00;1.00;;;;;43.36;19.98;101650.19;5080819;27;45322;-59
2023/08/21 16:12:15;;;;;;;;;1.00;1.00;;;;;43.47;18.93;101645.50;5080172;27;45291;-60
2023/08/21 16:14:40;;;;;;;;;1.25;1.25;;;;;43.41;18.77;101650.22;5080583;27;52432;-59
2023/08/21 16:17:07;;;;;;;;;3.00;1.25;;;;;43.27;18.94;101649.81;5096231;27;45402;-58
2023/08/21 16:19:33;;;;;;;;;0.75;0.75;;;;;43.27;19.47;101652.63;5079428;27;45480;-59
2023/08/21 16:21:58;;;;;;;;;0.25;0.25;;;;;43.28;19.43;101636.56;5078431;28;45557;-59
2023/08/21 16:24:24;;;;;;;;;2.00;1.00;;;;;43.36;18.98;101639.75;5080311;27;45334;-60
2023/08/21 16:26:49;;;;;;;;;0.50;0.50;;;;;43.36;19.40;101633.25;5069714;27;45935;-58
2023/08/21 16:29:17;;;;;;;;;0.75;0.75;;;;;43.33;19.12;101631.78;5080285;27;45298;-60
2023/08/21 16:31:43;;;;;;;;;2.00;1.00;;;;;43.30;19.23;101645.63;5075592;27;46152;-60
2023/08/21 16:34:09;;;;;;;;;2.00;1.00;;;;;43.13;19.18;101636.34;5064738;27;45284;-59
2023/08/21 16:36:34;;;;;;;;;1.75;1.00;;;;;43.12;19.31;101626.19;5068238;28;45371;-59
2023/08/21 16:39:00;;;;;;;;;1.00;0.75;;;;;43.28;19.52;101630.91;5079024;28;46068;-59
2023/08/21 16:41:25;;;;;;;;;1.00;1.00;;;;;43.28;18.78;101630.91;5080005;28;45349;-60
2023/08/21 16:43:50;;;;;;;;;1.25;1.00;;;;;43.24;19.07;101629.72;5079844;27;49694;-60
2023/08/21 16:46:16;;;;;;;;;1.00;1.00;;;;;43.20;19.31;101632.25;5079389;27;45476;-60
2023/08/21 16:48:41;;;;;;;;;2.25;2.00;;;;;43.43;19.39;101627.38;5080061;27;45512;-59
2023/08/21 16:51:07;;;;;;;;;2.00;1.00;;;;;43.44;19.06;101627.13;5079594;28;55029;-60
2023/08/21 16:53:32;;;;;;;;;1.00;0.25;;;;;43.30;18.83;101625.84;5080048;27;45419;-60
2023/08/21 16:55:57;;;;;;;;;2.00;1.75;;;;;43.13;18.71;101620.25;5080136;27;45515;-61
2023/08/21 16:58:23;;;;;;;;;0.00;0.00;;;;;43.01;19.44;101611.09;5079995;27;45317;-59
2023/08/21 17:00:48;;;;;;;;;1.00;1.00;;;;;43.01;19.30;101617.59;5080062;27;45660;-60
2023/08/21 17:03:14;;;;;;;;;4.00;1.50;;;;;43.10;19.01;101620.78;5079467;27;46618;-60
2023/08/21 17:05:39;;;;;;;;;0.25;0.25;;;;;43.05;18.58;101611.44;5079820;27;45480;-60
2023/08/21 17:08:05;;;;;;;;;1.00;1.00;;;;;43.08;19.15;101623.03;5079988;27;45618;-60
2023/08/21 17:10:30;;;;;;;;;0.75;0.75;;;;;43.03;18.95;101614.50;5078354;28;47788;-60
2023/08/21 17:12:55;;;;;;;;;2.50;1.00;;;;;42.94;18.69;101611.31;5079437;27;45373;-61
2023/08/21 17:15:21;;;;;;;;;1.00;1.00;;;;;42.75;18.61;101606.28;5079655;27;45383;-61
2023/08/21 17:17:46;;;;;;;;;2.50;1.75;;;;;42.72;19.29;101615.22;5079357;27;45452;-62
2023/08/21 17:20:12;;;;;;;;;0.25;0.25;;;;;42.72;19.01;101607.59;5079471;27;45237;-60
2023/08/21 17:22:37;;;;;;;;;0.25;0.25;;;;;42.72;19.66;101615.22;5079518;27;45373;-61
2023/08/21 17:25:03;;;;;;;;;1.00;1.00;;;;;42.70;19.29;101615.50;5079642;27;45387;-63
2023/08/21 17:27:29;;;;;;;;;1.00;1.00;;;;;42.68;19.07;101617.72;5079505;27;45279;-61
2023/08/21 17:29:54;;;;;;;;;0.25;0.25;;;;;42.65;18.99;101616.28;5079553;27;45367;-61
2023/08/21 17:32:20;;;;;;;;;1.00;1.00;;;;;42.59;19.51;101605.19;5079086;27;53057;-61
2023/08/21 17:34:45;;;;;;;;;1.50;0.75;;;;;42.45;19.00;101607.53;5079437;27;45257;-60